L'Epiphanie, Canada
Current Conditions -  °F | °C
As of 2:00 AM on Monday 22 Dec 2014 (Local Time) from CYHU Reporting Station
Overcast Overcast  
Wind Chill:   Ceiling: 1300
Heat Index: 16°   Visibility: 9mi
Dew Point: 12°   Wind: 10mph
Humidity: 86%   Direction: 20°NNE
Pressure: 30.42"   Gusts: NA
Location:  45.85°N, 73.48°W
Report Text: CYHU 220700Z AUTO 02009KT 9SM OVC013 M09/M11 A3042 RMK SLP304
Loading
Personal Weather Stations






























Interactive Weather Map New forecast layout! Learn more

10-Day Weather Forecast

Advertisements
Track Severe Weather on mobile